METAR Data
IDs: Format: Raw Decoded Include TAF

Data at: 2107 UTC 24 Mar 2019

KDAL 242053Z 19010KT 10SM SCT048CB SCT060 BKN250 27/17 A2996 RMK AO2 SLP139 CB SW-W MOV NE TCU W-N T02720172 56022
KDAL 241953Z 20007G22KT 10SM SCT042 BKN250 28/17 A2997 RMK AO2 SLP143 MDT CU SW-NW T02780167
KDAL 241853Z 21008KT 10SM SCT034 BKN250 25/17 A3001 RMK AO2 SLP155 T02500167
KDAL 241753Z 21011G16KT 10SM BKN031 BKN250 24/17 A3002 RMK AO2 SLP162 T02440167 10244 20167 58008
KDAL 241726Z 21011G15KT 10SM BKN030 BKN250 24/17 A3003 RMK AO2 T02390167
KDAL 241653Z 21010G17KT 10SM BKN028 BKN250 23/17 A3004 RMK AO2 SLP168 T02330172
KDAL 241610Z 22010G18KT 10SM BKN024 BKN250 23/17 A3005 RMK AO2 T02280167
KDAL 241553Z 23009KT 10SM SCT018 BKN250 23/17 A3005 RMK AO2 SLP170 T02330172
KDAL 241523Z 22009G17KT 10SM SCT016 BKN250 22/17 A3005 RMK AO2 T02170167
KDAL 241453Z 20008KT 10SM BKN014 BKN250 21/17 A3005 RMK AO2 SLP170 T02060167 51009
KDAL 241353Z 19009KT 10SM OVC010 18/16 A3004 RMK AO2 SLP169 T01830161
KDAL 241307Z 17010KT 10SM BKN011 17/16 A3004 RMK AO2 T01720156
KDAL 241253Z 18008KT 10SM FEW010 FEW035 17/16 A3003 RMK AO2 SLP165 T01670156
KDAL 241153Z 17008KT 10SM FEW015 17/15 A3002 RMK AO2 SLP162 70001 T01720150 10194 20167 53001
KDAL 241053Z 18009KT 10SM FEW015 SCT024 17/15 A3001 RMK AO2 SLP158 T01720150
KDAL 241043Z 17011KT 10SM SCT015 17/15 A3001 RMK AO2 T01720150
KDAL 241025Z 17009KT 10SM BKN015 17/15 A3001 RMK AO2 T01720150
KDAL 240953Z 17010KT 10SM FEW016 18/15 A3001 RMK AO2 SLP157 T01780150
KDAL 240925Z 16010KT 10SM SCT017 18/15 A3001 RMK AO2 T01830150
KDAL 240853Z 17009KT 10SM OVC018 18/15 A3002 RMK AO2 SLP161 OVC V BKN T01830150 58003
KDAL 240753Z 18009KT 10SM BKN020 OVC036 19/15 A3003 RMK AO2 SLP163 BINOVC T01890150
KDAL 240653Z 18013KT 10SM BKN023 OVC040 19/15 A3003 RMK AO2 SLP165 T01940150
KDAL 240635Z 17012KT 10SM BKN023 OVC038 19/15 A3003 RMK AO2 T01940150
KDAL 240553Z 17010KT 10SM FEW018 OVC033 19/15 A3003 RMK AO2 SLP164 T01940150 10217 20194 402170161 53008
KDAL 240453Z 18014KT 10SM OVC035 20/14 A3002 RMK AO2 SLP160 BINOVC T02000144
KDAL 240353Z 17010KT 10SM BKN038 BKN250 20/14 A3001 RMK AO2 SLP158 T02000144
KDAL 240253Z 16010KT 10SM BKN040 OVC250 21/15 A3000 RMK AO2 SLP155 T02060150 53007
KDAL 240153Z 17013KT 10SM BKN037 BKN250 21/15 A2999 RMK AO2 SLP149 T02060150
KDAL 240053Z 18015KT 10SM SCT036 SCT060 BKN250 21/16 A2998 RMK AO2 SLP146 CB DSNT W-NW MOV NE T02110156
KDAL 232353Z 18010KT 10SM FEW030 BKN036 BKN060 BKN250 22/16 A2998 RMK AO2 RAE49 SLP148 P0000 60000 T02170156 10217 20194 55002
KDAL 232253Z 19010KT 10SM -RA FEW029 OVC034 21/16 A2998 RMK AO2 RAB40 SLP147 P0000 T02110156
KDAL 232232Z 19011G19KT 10SM FEW029 OVC032 21/16 A2998 RMK AO2 T02110156
KDAL 232153Z 20009G18KT 10SM BKN029 OVC032 22/16 A2998 RMK AO2 SLP147 T02170156
KDAL 232053Z 20013G20KT 10SM BKN028 OVC032 21/16 A2999 RMK AO2 SLP150 BKN V SCT T02110156 56026
KDAL 231953Z 18014G19KT 10SM BKN025 OVC032 21/16 A3001 RMK AO2 SLP156 T02060156
KDAL 231853Z 19011G22KT 10SM BKN023 OVC032 20/15 A3003 RMK AO2 SLP166 T02000150
KDAL 231753Z 20011G20KT 10SM BKN020 OVC038 19/15 A3007 RMK AO2 SLP176 60001 T01940150 10194 20161 58004
KDAL 231653Z 19005KT 10SM BKN024 OVC043 18/14 A3008 RMK AO2 RAE31 SLP181 P0001 T01830144
KDAL 231623Z 19006KT 10SM -RA BKN027 BKN045 OVC090 18/14 A3008 RMK AO2 P0001 T01780144
KDAL 231553Z 17012KT 10SM -RA BKN047 OVC090 18/14 A3008 RMK AO2 RAB11 SLP181 P0000 T01780139
KDAL 231453Z 17015KT 10SM FEW040 BKN055 BKN100 18/12 A3008 RMK AO2 RAB30E46 SLP180 P0000 60000 T01780122 51014
KDAL 231353Z 18012KT 10SM BKN044 BKN090 BKN250 17/11 A3007 RMK AO2 RAB06E26 SLP176 P0000 T01670111
KDAL 231253Z 17011KT 10SM BKN050 BKN080 BKN120 OVC250 17/09 A3005 RMK AO2 SLP172 T01670094
KDAL 231153Z 18008KT 10SM FEW050 SCT080 BKN250 17/08 A3004 RMK AO2 SLP166 T01670083 10200 20167 53004
KDAL 231053Z 17011KT 10SM SCT075 SCT170 BKN250 17/08 A3002 RMK AO2 SLP159 T01720078
KDAL 230953Z 19005KT 10SM SCT070 BKN170 OVC250 18/09 A3002 RMK AO2 SLP160 T01780089